sensor_id;sensor_type;location;lat;lon;timestamp;P1;durP1;ratioP1;P2;durP2;ratioP2
3443;SDS011;1736;52.068;6.968;2024-03-08T00:00:41;23.27;;;17.63;;
3443;SDS011;1736;52.068;6.968;2024-03-08T00:03:08;25.17;;;16.88;;
3443;SDS011;1736;52.068;6.968;2024-03-08T00:05:35;25.58;;;17.27;;
3443;SDS011;1736;52.068;6.968;2024-03-08T00:08:04;23.75;;;17.48;;
3443;SDS011;1736;52.068;6.968;2024-03-08T00:10:32;21.17;;;16.35;;
3443;SDS011;1736;52.068;6.968;2024-03-08T00:12:59;22.65;;;16.50;;
3443;SDS011;1736;52.068;6.968;2024-03-08T00:15:26;22.92;;;16.75;;
3443;SDS011;1736;52.068;6.968;2024-03-08T00:17:54;24.42;;;17.50;;
3443;SDS011;1736;52.068;6.968;2024-03-08T00:20:21;21.00;;;16.45;;
3443;SDS011;1736;52.068;6.968;2024-03-08T00:22:48;27.83;;;18.08;;
3443;SDS011;1736;52.068;6.968;2024-03-08T00:25:16;24.13;;;17.40;;
3443;SDS011;1736;52.068;6.968;2024-03-08T00:27:44;24.77;;;17.65;;
3443;SDS011;1736;52.068;6.968;2024-03-08T00:30:14;24.80;;;17.55;;
3443;SDS011;1736;52.068;6.968;2024-03-08T00:32:41;25.90;;;17.80;;
3443;SDS011;1736;52.068;6.968;2024-03-08T00:35:08;22.13;;;17.45;;
3443;SDS011;1736;52.068;6.968;2024-03-08T00:37:34;25.65;;;17.00;;
3443;SDS011;1736;52.068;6.968;2024-03-08T00:40:01;23.83;;;18.02;;
3443;SDS011;1736;52.068;6.968;2024-03-08T00:42:28;24.60;;;17.27;;
3443;SDS011;1736;52.068;6.968;2024-03-08T00:44:56;23.60;;;17.40;;
3443;SDS011;1736;52.068;6.968;2024-03-08T00:47:23;22.88;;;17.50;;
3443;SDS011;1736;52.068;6.968;2024-03-08T00:49:49;24.90;;;18.90;;
3443;SDS011;1736;52.068;6.968;2024-03-08T00:52:16;23.08;;;17.30;;
3443;SDS011;1736;52.068;6.968;2024-03-08T00:54:43;25.45;;;17.35;;
3443;SDS011;1736;52.068;6.968;2024-03-08T00:57:10;25.87;;;18.03;;
3443;SDS011;1736;52.068;6.968;2024-03-08T00:59:37;24.20;;;17.85;;
3443;SDS011;1736;52.068;6.968;2024-03-08T01:02:05;25.45;;;18.05;;
3443;SDS011;1736;52.068;6.968;2024-03-08T01:04:34;28.00;;;18.55;;
3443;SDS011;1736;52.068;6.968;2024-03-08T01:07:00;23.98;;;17.30;;
3443;SDS011;1736;52.068;6.968;2024-03-08T01:09:27;26.38;;;18.38;;
3443;SDS011;1736;52.068;6.968;2024-03-08T01:11:53;25.83;;;17.80;;
3443;SDS011;1736;52.068;6.968;2024-03-08T01:14:20;24.25;;;18.33;;
3443;SDS011;1736;52.068;6.968;2024-03-08T01:16:48;25.10;;;18.52;;
3443;SDS011;1736;52.068;6.968;2024-03-08T01:19:16;25.30;;;18.50;;
3443;SDS011;1736;52.068;6.968;2024-03-08T01:21:42;26.27;;;19.00;;
3443;SDS011;1736;52.068;6.968;2024-03-08T01:24:09;26.77;;;18.70;;
3443;SDS011;1736;52.068;6.968;2024-03-08T01:26:36;25.42;;;18.70;;
3443;SDS011;1736;52.068;6.968;2024-03-08T01:29:02;25.77;;;18.83;;
3443;SDS011;1736;52.068;6.968;2024-03-08T01:31:29;25.13;;;18.10;;
3443;SDS011;1736;52.068;6.968;2024-03-08T01:33:56;26.20;;;18.30;;
3443;SDS011;1736;52.068;6.968;2024-03-08T01:36:24;24.77;;;18.15;;
3443;SDS011;1736;52.068;6.968;2024-03-08T01:38:50;29.27;;;20.70;;
3443;SDS011;1736;52.068;6.968;2024-03-08T01:41:17;27.15;;;19.00;;
3443;SDS011;1736;52.068;6.968;2024-03-08T01:43:45;28.95;;;19.15;;
3443;SDS011;1736;52.068;6.968;2024-03-08T01:46:12;29.05;;;19.17;;
3443;SDS011;1736;52.068;6.968;2024-03-08T01:48:42;26.60;;;19.13;;
3443;SDS011;1736;52.068;6.968;2024-03-08T01:51:09;27.50;;;19.27;;
3443;SDS011;1736;52.068;6.968;2024-03-08T01:53:38;26.63;;;19.13;;
3443;SDS011;1736;52.068;6.968;2024-03-08T01:56:07;28.67;;;19.03;;
3443;SDS011;1736;52.068;6.968;2024-03-08T01:58:34;24.83;;;18.40;;
3443;SDS011;1736;52.068;6.968;2024-03-08T02:01:01;26.08;;;18.83;;
3443;SDS011;1736;52.068;6.968;2024-03-08T02:03:29;29.10;;;19.88;;
3443;SDS011;1736;52.068;6.968;2024-03-08T02:05:56;27.33;;;19.92;;
3443;SDS011;1736;52.068;6.968;2024-03-08T02:08:30;28.05;;;19.38;;
3443;SDS011;1736;52.068;6.968;2024-03-08T02:10:58;26.88;;;19.40;;
3443;SDS011;1736;52.068;6.968;2024-03-08T02:13:24;27.52;;;19.13;;
3443;SDS011;1736;52.068;6.968;2024-03-08T02:15:52;27.35;;;19.27;;
3443;SDS011;1736;52.068;6.968;2024-03-08T02:18:19;28.73;;;20.55;;
3443;SDS011;1736;52.068;6.968;2024-03-08T02:20:48;28.63;;;20.08;;
3443;SDS011;1736;52.068;6.968;2024-03-08T02:23:15;30.00;;;19.40;;
3443;SDS011;1736;52.068;6.968;2024-03-08T02:25:42;29.58;;;20.30;;
3443;SDS011;1736;52.068;6.968;2024-03-08T02:28:09;28.25;;;20.05;;
3443;SDS011;1736;52.068;6.968;2024-03-08T02:30:36;26.98;;;19.67;;
3443;SDS011;1736;52.068;6.968;2024-03-08T02:33:03;26.02;;;19.30;;
3443;SDS011;1736;52.068;6.968;2024-03-08T02:35:30;27.52;;;19.45;;
3443;SDS011;1736;52.068;6.968;2024-03-08T02:37:58;29.23;;;21.05;;
3443;SDS011;1736;52.068;6.968;2024-03-08T02:40:24;29.83;;;20.27;;
3443;SDS011;1736;52.068;6.968;2024-03-08T02:42:51;27.80;;;20.52;;
3443;SDS011;1736;52.068;6.968;2024-03-08T02:45:18;28.92;;;20.10;;
3443;SDS011;1736;52.068;6.968;2024-03-08T02:47:44;28.15;;;19.50;;
3443;SDS011;1736;52.068;6.968;2024-03-08T02:50:11;27.88;;;20.13;;
3443;SDS011;1736;52.068;6.968;2024-03-08T02:52:41;26.83;;;19.10;;
3443;SDS011;1736;52.068;6.968;2024-03-08T02:55:09;28.00;;;21.13;;
3443;SDS011;1736;52.068;6.968;2024-03-08T02:57:40;29.00;;;20.10;;
3443;SDS011;1736;52.068;6.968;2024-03-08T03:00:07;27.25;;;19.75;;
3443;SDS011;1736;52.068;6.968;2024-03-08T03:02:35;28.33;;;20.40;;
3443;SDS011;1736;52.068;6.968;2024-03-08T03:05:02;28.05;;;19.25;;
3443;SDS011;1736;52.068;6.968;2024-03-08T03:07:31;27.70;;;20.20;;
3443;SDS011;1736;52.068;6.968;2024-03-08T03:09:58;27.77;;;19.65;;
3443;SDS011;1736;52.068;6.968;2024-03-08T03:12:26;34.73;;;20.40;;
3443;SDS011;1736;52.068;6.968;2024-03-08T03:14:53;29.92;;;20.33;;
3443;SDS011;1736;52.068;6.968;2024-03-08T03:17:21;28.17;;;20.00;;
3443;SDS011;1736;52.068;6.968;2024-03-08T03:19:48;29.83;;;21.17;;
3443;SDS011;1736;52.068;6.968;2024-03-08T03:22:14;29.20;;;20.30;;
3443;SDS011;1736;52.068;6.968;2024-03-08T03:24:41;30.50;;;21.40;;
3443;SDS011;1736;52.068;6.968;2024-03-08T03:27:07;31.10;;;21.23;;
3443;SDS011;1736;52.068;6.968;2024-03-08T03:29:38;29.33;;;20.58;;
3443;SDS011;1736;52.068;6.968;2024-03-08T03:32:04;28.40;;;20.65;;
3443;SDS011;1736;52.068;6.968;2024-03-08T03:34:32;30.60;;;21.47;;
3443;SDS011;1736;52.068;6.968;2024-03-08T03:37:01;28.65;;;21.10;;
3443;SDS011;1736;52.068;6.968;2024-03-08T03:39:27;31.30;;;22.15;;
3443;SDS011;1736;52.068;6.968;2024-03-08T03:41:56;31.13;;;21.40;;
3443;SDS011;1736;52.068;6.968;2024-03-08T03:44:23;31.80;;;20.97;;
3443;SDS011;1736;52.068;6.968;2024-03-08T03:46:51;32.17;;;22.27;;
3443;SDS011;1736;52.068;6.968;2024-03-08T03:49:18;27.70;;;21.15;;
3443;SDS011;1736;52.068;6.968;2024-03-08T03:51:44;33.10;;;22.17;;
3443;SDS011;1736;52.068;6.968;2024-03-08T03:54:11;31.83;;;22.00;;
3443;SDS011;1736;52.068;6.968;2024-03-08T03:56:38;31.63;;;22.40;;
3443;SDS011;1736;52.068;6.968;2024-03-08T03:59:05;31.50;;;21.92;;
3443;SDS011;1736;52.068;6.968;2024-03-08T04:01:32;30.63;;;22.55;;
3443;SDS011;1736;52.068;6.968;2024-03-08T04:04:00;30.45;;;22.25;;
3443;SDS011;1736;52.068;6.968;2024-03-08T04:06:27;29.73;;;21.30;;
3443;SDS011;1736;52.068;6.968;2024-03-08T04:08:53;32.08;;;23.65;;
3443;SDS011;1736;52.068;6.968;2024-03-08T04:11:20;32.40;;;21.80;;
3443;SDS011;1736;52.068;6.968;2024-03-08T04:13:46;32.88;;;22.98;;
3443;SDS011;1736;52.068;6.968;2024-03-08T04:16:13;32.37;;;23.00;;
3443;SDS011;1736;52.068;6.968;2024-03-08T04:18:40;31.67;;;22.90;;
3443;SDS011;1736;52.068;6.968;2024-03-08T04:21:09;30.13;;;21.23;;
3443;SDS011;1736;52.068;6.968;2024-03-08T04:23:36;32.40;;;22.83;;
3443;SDS011;1736;52.068;6.968;2024-03-08T04:26:03;29.92;;;22.02;;
3443;SDS011;1736;52.068;6.968;2024-03-08T04:28:31;33.93;;;23.37;;
3443;SDS011;1736;52.068;6.968;2024-03-08T04:30:58;31.23;;;22.15;;
3443;SDS011;1736;52.068;6.968;2024-03-08T04:33:25;31.90;;;22.08;;
3443;SDS011;1736;52.068;6.968;2024-03-08T04:35:53;36.27;;;23.90;;
3443;SDS011;1736;52.068;6.968;2024-03-08T04:38:21;32.00;;;23.60;;
3443;SDS011;1736;52.068;6.968;2024-03-08T04:40:47;33.95;;;23.80;;
3443;SDS011;1736;52.068;6.968;2024-03-08T04:43:14;31.38;;;22.70;;
3443;SDS011;1736;52.068;6.968;2024-03-08T04:45:40;32.60;;;23.73;;
3443;SDS011;1736;52.068;6.968;2024-03-08T04:48:08;35.38;;;23.20;;
3443;SDS011;1736;52.068;6.968;2024-03-08T04:50:36;33.90;;;23.23;;
3443;SDS011;1736;52.068;6.968;2024-03-08T04:53:03;34.65;;;24.00;;
3443;SDS011;1736;52.068;6.968;2024-03-08T04:55:34;34.38;;;24.35;;
3443;SDS011;1736;52.068;6.968;2024-03-08T04:58:02;33.78;;;23.55;;
3443;SDS011;1736;52.068;6.968;2024-03-08T05:00:30;36.28;;;23.95;;
3443;SDS011;1736;52.068;6.968;2024-03-08T05:02:57;34.17;;;23.08;;
3443;SDS011;1736;52.068;6.968;2024-03-08T05:05:24;33.60;;;23.40;;
3443;SDS011;1736;52.068;6.968;2024-03-08T05:07:51;33.00;;;23.60;;
3443;SDS011;1736;52.068;6.968;2024-03-08T05:10:18;33.70;;;23.33;;
3443;SDS011;1736;52.068;6.968;2024-03-08T05:12:46;34.22;;;24.83;;
3443;SDS011;1736;52.068;6.968;2024-03-08T05:15:13;34.63;;;23.75;;
3443;SDS011;1736;52.068;6.968;2024-03-08T05:17:39;35.10;;;24.27;;
3443;SDS011;1736;52.068;6.968;2024-03-08T05:20:07;35.83;;;24.52;;
3443;SDS011;1736;52.068;6.968;2024-03-08T05:22:37;35.67;;;23.58;;
3443;SDS011;1736;52.068;6.968;2024-03-08T05:25:05;33.75;;;23.90;;
3443;SDS011;1736;52.068;6.968;2024-03-08T05:27:33;33.40;;;23.10;;
3443;SDS011;1736;52.068;6.968;2024-03-08T05:30:01;39.47;;;24.15;;
3443;SDS011;1736;52.068;6.968;2024-03-08T05:32:29;34.90;;;23.90;;
3443;SDS011;1736;52.068;6.968;2024-03-08T05:34:55;35.90;;;24.70;;
3443;SDS011;1736;52.068;6.968;2024-03-08T05:37:22;34.03;;;24.00;;
3443;SDS011;1736;52.068;6.968;2024-03-08T05:39:48;35.78;;;24.60;;
3443;SDS011;1736;52.068;6.968;2024-03-08T05:42:15;32.45;;;22.67;;
3443;SDS011;1736;52.068;6.968;2024-03-08T05:44:41;35.53;;;25.25;;
3443;SDS011;1736;52.068;6.968;2024-03-08T05:47:10;34.80;;;24.15;;
3443;SDS011;1736;52.068;6.968;2024-03-08T05:49:36;37.38;;;23.65;;
3443;SDS011;1736;52.068;6.968;2024-03-08T05:52:04;34.88;;;25.00;;
3443;SDS011;1736;52.068;6.968;2024-03-08T05:54:31;36.13;;;24.90;;
3443;SDS011;1736;52.068;6.968;2024-03-08T05:56:58;37.08;;;24.85;;
3443;SDS011;1736;52.068;6.968;2024-03-08T05:59:24;33.67;;;23.42;;
3443;SDS011;1736;52.068;6.968;2024-03-08T06:01:52;34.20;;;24.38;;
3443;SDS011;1736;52.068;6.968;2024-03-08T06:04:20;34.90;;;25.35;;
3443;SDS011;1736;52.068;6.968;2024-03-08T06:06:46;38.17;;;25.20;;
3443;SDS011;1736;52.068;6.968;2024-03-08T06:09:13;38.28;;;25.35;;
3443;SDS011;1736;52.068;6.968;2024-03-08T06:11:42;35.33;;;24.93;;
3443;SDS011;1736;52.068;6.968;2024-03-08T06:14:09;36.67;;;24.60;;
3443;SDS011;1736;52.068;6.968;2024-03-08T06:16:35;38.45;;;25.60;;
3443;SDS011;1736;52.068;6.968;2024-03-08T06:19:03;36.28;;;25.20;;
3443;SDS011;1736;52.068;6.968;2024-03-08T06:21:32;34.15;;;23.85;;
3443;SDS011;1736;52.068;6.968;2024-03-08T06:23:58;35.33;;;24.65;;
3443;SDS011;1736;52.068;6.968;2024-03-08T06:26:25;38.50;;;25.40;;
3443;SDS011;1736;52.068;6.968;2024-03-08T06:28:53;38.33;;;25.57;;
3443;SDS011;1736;52.068;6.968;2024-03-08T06:31:20;36.00;;;24.90;;
3443;SDS011;1736;52.068;6.968;2024-03-08T06:33:47;36.42;;;25.10;;
3443;SDS011;1736;52.068;6.968;2024-03-08T06:36:32;35.42;;;24.55;;
3443;SDS011;1736;52.068;6.968;2024-03-08T06:39:16;34.80;;;24.10;;
3443;SDS011;1736;52.068;6.968;2024-03-08T06:41:43;34.70;;;23.15;;
3443;SDS011;1736;52.068;6.968;2024-03-08T06:44:10;36.83;;;24.30;;
3443;SDS011;1736;52.068;6.968;2024-03-08T06:46:36;36.67;;;25.23;;
3443;SDS011;1736;52.068;6.968;2024-03-08T06:49:04;36.20;;;24.70;;
3443;SDS011;1736;52.068;6.968;2024-03-08T06:51:33;38.58;;;25.13;;
3443;SDS011;1736;52.068;6.968;2024-03-08T06:54:00;35.47;;;24.95;;
3443;SDS011;1736;52.068;6.968;2024-03-08T06:56:26;35.88;;;24.48;;
3443;SDS011;1736;52.068;6.968;2024-03-08T06:58:53;36.80;;;25.38;;
3443;SDS011;1736;52.068;6.968;2024-03-08T07:01:20;35.20;;;24.60;;
3443;SDS011;1736;52.068;6.968;2024-03-08T07:03:46;37.33;;;24.30;;
3443;SDS011;1736;52.068;6.968;2024-03-08T07:06:13;37.03;;;24.30;;
3443;SDS011;1736;52.068;6.968;2024-03-08T07:08:42;38.63;;;25.77;;
3443;SDS011;1736;52.068;6.968;2024-03-08T07:11:11;33.90;;;24.80;;
3443;SDS011;1736;52.068;6.968;2024-03-08T07:13:37;34.85;;;23.23;;
3443;SDS011;1736;52.068;6.968;2024-03-08T07:16:04;35.33;;;24.08;;
3443;SDS011;1736;52.068;6.968;2024-03-08T07:18:33;38.30;;;25.40;;
3443;SDS011;1736;52.068;6.968;2024-03-08T07:21:01;34.00;;;23.50;;
3443;SDS011;1736;52.068;6.968;2024-03-08T07:23:28;35.05;;;23.70;;
3443;SDS011;1736;52.068;6.968;2024-03-08T07:26:29;35.88;;;24.00;;
3443;SDS011;1736;52.068;6.968;2024-03-08T07:28:56;33.45;;;22.80;;
3443;SDS011;1736;52.068;6.968;2024-03-08T07:31:24;35.72;;;23.30;;
3443;SDS011;1736;52.068;6.968;2024-03-08T07:34:00;36.20;;;23.80;;
3443;SDS011;1736;52.068;6.968;2024-03-08T07:36:26;34.80;;;22.58;;
3443;SDS011;1736;52.068;6.968;2024-03-08T07:38:53;34.97;;;23.65;;
3443;SDS011;1736;52.068;6.968;2024-03-08T07:41:19;36.70;;;24.13;;
3443;SDS011;1736;52.068;6.968;2024-03-08T07:43:48;33.43;;;23.43;;
3443;SDS011;1736;52.068;6.968;2024-03-08T07:46:15;34.27;;;23.73;;
3443;SDS011;1736;52.068;6.968;2024-03-08T07:48:43;33.85;;;23.33;;
3443;SDS011;1736;52.068;6.968;2024-03-08T07:51:11;32.60;;;21.80;;
3443;SDS011;1736;52.068;6.968;2024-03-08T07:53:38;35.75;;;24.20;;
3443;SDS011;1736;52.068;6.968;2024-03-08T07:56:06;34.90;;;23.85;;
3443;SDS011;1736;52.068;6.968;2024-03-08T07:58:34;33.20;;;23.25;;
3443;SDS011;1736;52.068;6.968;2024-03-08T08:01:02;34.38;;;23.23;;
3443;SDS011;1736;52.068;6.968;2024-03-08T08:03:28;34.97;;;23.92;;
3443;SDS011;1736;52.068;6.968;2024-03-08T08:05:55;35.00;;;22.97;;
3443;SDS011;1736;52.068;6.968;2024-03-08T08:08:21;31.92;;;22.27;;
3443;SDS011;1736;52.068;6.968;2024-03-08T08:10:48;31.10;;;22.33;;
3443;SDS011;1736;52.068;6.968;2024-03-08T08:13:15;32.13;;;22.27;;
3443;SDS011;1736;52.068;6.968;2024-03-08T08:15:43;32.33;;;21.88;;
3443;SDS011;1736;52.068;6.968;2024-03-08T08:18:12;34.03;;;23.45;;
3443;SDS011;1736;52.068;6.968;2024-03-08T08:20:39;32.15;;;22.38;;
3443;SDS011;1736;52.068;6.968;2024-03-08T08:23:05;33.38;;;22.90;;
3443;SDS011;1736;52.068;6.968;2024-03-08T08:25:32;34.70;;;23.02;;
3443;SDS011;1736;52.068;6.968;2024-03-08T08:28:00;32.83;;;23.17;;
3443;SDS011;1736;52.068;6.968;2024-03-08T08:30:29;33.50;;;22.73;;
3443;SDS011;1736;52.068;6.968;2024-03-08T08:32:58;32.65;;;23.08;;
3443;SDS011;1736;52.068;6.968;2024-03-08T08:35:27;33.42;;;22.67;;
3443;SDS011;1736;52.068;6.968;2024-03-08T08:37:53;34.28;;;22.67;;
3443;SDS011;1736;52.068;6.968;2024-03-08T08:40:20;32.97;;;22.73;;
3443;SDS011;1736;52.068;6.968;2024-03-08T08:42:47;32.97;;;23.13;;
3443;SDS011;1736;52.068;6.968;2024-03-08T08:45:14;34.40;;;22.45;;
3443;SDS011;1736;52.068;6.968;2024-03-08T08:47:42;31.85;;;21.52;;
3443;SDS011;1736;52.068;6.968;2024-03-08T08:50:13;33.28;;;23.15;;
3443;SDS011;1736;52.068;6.968;2024-03-08T08:52:42;34.25;;;23.52;;
3443;SDS011;1736;52.068;6.968;2024-03-08T08:55:09;32.63;;;22.90;;
3443;SDS011;1736;52.068;6.968;2024-03-08T08:57:39;33.50;;;22.95;;
3443;SDS011;1736;52.068;6.968;2024-03-08T09:00:06;30.65;;;21.67;;
3443;SDS011;1736;52.068;6.968;2024-03-08T09:02:34;33.42;;;22.02;;
3443;SDS011;1736;52.068;6.968;2024-03-08T09:05:00;33.20;;;22.60;;
3443;SDS011;1736;52.068;6.968;2024-03-08T09:07:27;31.00;;;22.10;;
3443;SDS011;1736;52.068;6.968;2024-03-08T09:09:55;32.67;;;22.40;;
3443;SDS011;1736;52.068;6.968;2024-03-08T09:12:23;31.67;;;21.77;;
3443;SDS011;1736;52.068;6.968;2024-03-08T09:14:49;33.40;;;22.77;;
3443;SDS011;1736;52.068;6.968;2024-03-08T09:17:16;33.58;;;22.33;;
3443;SDS011;1736;52.068;6.968;2024-03-08T09:19:45;32.10;;;22.27;;
3443;SDS011;1736;52.068;6.968;2024-03-08T09:22:12;33.03;;;22.83;;
3443;SDS011;1736;52.068;6.968;2024-03-08T09:24:39;31.80;;;21.98;;
3443;SDS011;1736;52.068;6.968;2024-03-08T09:27:09;33.20;;;22.05;;
3443;SDS011;1736;52.068;6.968;2024-03-08T09:29:36;35.60;;;22.23;;
3443;SDS011;1736;52.068;6.968;2024-03-08T09:32:02;32.83;;;23.05;;
3443;SDS011;1736;52.068;6.968;2024-03-08T09:34:29;32.33;;;22.52;;
3443;SDS011;1736;52.068;6.968;2024-03-08T09:36:56;32.15;;;22.98;;
3443;SDS011;1736;52.068;6.968;2024-03-08T09:39:22;31.75;;;23.10;;
3443;SDS011;1736;52.068;6.968;2024-03-08T09:41:49;32.75;;;22.38;;
3443;SDS011;1736;52.068;6.968;2024-03-08T09:44:17;33.22;;;22.00;;
3443;SDS011;1736;52.068;6.968;2024-03-08T09:46:44;32.25;;;21.52;;
3443;SDS011;1736;52.068;6.968;2024-03-08T09:49:12;31.17;;;21.20;;
3443;SDS011;1736;52.068;6.968;2024-03-08T09:51:39;31.27;;;20.60;;
3443;SDS011;1736;52.068;6.968;2024-03-08T09:54:06;31.35;;;20.13;;
3443;SDS011;1736;52.068;6.968;2024-03-08T09:56:33;31.67;;;20.27;;
3443;SDS011;1736;52.068;6.968;2024-03-08T09:59:01;33.70;;;21.42;;
3443;SDS011;1736;52.068;6.968;2024-03-08T10:02:09;33.33;;;20.40;;
3443;SDS011;1736;52.068;6.968;2024-03-08T10:04:40;32.25;;;20.55;;
3443;SDS011;1736;52.068;6.968;2024-03-08T10:07:08;31.02;;;20.75;;
3443;SDS011;1736;52.068;6.968;2024-03-08T10:09:34;33.33;;;21.20;;
3443;SDS011;1736;52.068;6.968;2024-03-08T10:12:01;33.20;;;22.13;;
3443;SDS011;1736;52.068;6.968;2024-03-08T10:14:28;33.85;;;20.70;;
3443;SDS011;1736;52.068;6.968;2024-03-08T10:16:54;32.60;;;21.45;;
3443;SDS011;1736;52.068;6.968;2024-03-08T10:19:26;33.60;;;21.75;;
3443;SDS011;1736;52.068;6.968;2024-03-08T10:21:55;33.97;;;21.30;;
3443;SDS011;1736;52.068;6.968;2024-03-08T10:24:24;32.00;;;21.02;;
3443;SDS011;1736;52.068;6.968;2024-03-08T10:26:53;32.33;;;21.30;;
3443;SDS011;1736;52.068;6.968;2024-03-08T10:29:24;32.78;;;20.63;;
3443;SDS011;1736;52.068;6.968;2024-03-08T10:31:51;35.22;;;22.15;;
3443;SDS011;1736;52.068;6.968;2024-03-08T10:34:17;33.08;;;21.13;;
3443;SDS011;1736;52.068;6.968;2024-03-08T10:36:46;32.88;;;21.00;;
3443;SDS011;1736;52.068;6.968;2024-03-08T10:39:19;33.17;;;21.50;;
3443;SDS011;1736;52.068;6.968;2024-03-08T10:41:50;31.88;;;21.02;;
3443;SDS011;1736;52.068;6.968;2024-03-08T10:44:23;32.30;;;20.02;;
3443;SDS011;1736;52.068;6.968;2024-03-08T10:47:00;31.73;;;20.42;;
3443;SDS011;1736;52.068;6.968;2024-03-08T10:49:31;29.17;;;19.30;;
3443;SDS011;1736;52.068;6.968;2024-03-08T10:52:02;28.50;;;18.90;;
3443;SDS011;1736;52.068;6.968;2024-03-08T10:54:30;29.85;;;19.70;;
3443;SDS011;1736;52.068;6.968;2024-03-08T10:56:58;30.50;;;19.88;;
3443;SDS011;1736;52.068;6.968;2024-03-08T10:59:26;30.98;;;18.73;;
3443;SDS011;1736;52.068;6.968;2024-03-08T11:01:53;29.58;;;19.40;;
3443;SDS011;1736;52.068;6.968;2024-03-08T11:04:20;29.05;;;19.17;;
3443;SDS011;1736;52.068;6.968;2024-03-08T11:06:48;31.40;;;20.00;;
3443;SDS011;1736;52.068;6.968;2024-03-08T11:09:28;32.55;;;19.52;;
3443;SDS011;1736;52.068;6.968;2024-03-08T11:14:51;29.10;;;19.75;;
3443;SDS011;1736;52.068;6.968;2024-03-08T11:17:20;28.58;;;19.00;;
3443;SDS011;1736;52.068;6.968;2024-03-08T11:19:48;29.65;;;19.70;;
3443;SDS011;1736;52.068;6.968;2024-03-08T11:22:20;32.03;;;20.00;;
3443;SDS011;1736;52.068;6.968;2024-03-08T11:24:50;29.50;;;20.30;;
3443;SDS011;1736;52.068;6.968;2024-03-08T11:27:16;29.48;;;19.63;;
3443;SDS011;1736;52.068;6.968;2024-03-08T11:29:45;27.13;;;19.45;;
3443;SDS011;1736;52.068;6.968;2024-03-08T11:32:27;28.65;;;18.63;;
3443;SDS011;1736;52.068;6.968;2024-03-08T11:34:55;29.30;;;18.88;;
3443;SDS011;1736;52.068;6.968;2024-03-08T11:37:22;27.25;;;18.63;;
3443;SDS011;1736;52.068;6.968;2024-03-08T11:39:51;27.05;;;18.70;;
3443;SDS011;1736;52.068;6.968;2024-03-08T11:42:24;25.95;;;18.40;;
3443;SDS011;1736;52.068;6.968;2024-03-08T11:44:52;28.02;;;18.30;;
3443;SDS011;1736;52.068;6.968;2024-03-08T11:47:20;25.25;;;17.00;;
3443;SDS011;1736;52.068;6.968;2024-03-08T11:49:47;23.92;;;15.88;;
3443;SDS011;1736;52.068;6.968;2024-03-08T11:52:14;22.45;;;16.35;;
3443;SDS011;1736;52.068;6.968;2024-03-08T11:54:42;21.33;;;15.13;;
3443;SDS011;1736;52.068;6.968;2024-03-08T11:57:10;24.30;;;15.93;;
3443;SDS011;1736;52.068;6.968;2024-03-08T11:59:37;24.30;;;15.98;;
3443;SDS011;1736;52.068;6.968;2024-03-08T12:02:04;23.30;;;16.27;;
3443;SDS011;1736;52.068;6.968;2024-03-08T12:04:32;21.00;;;14.82;;
3443;SDS011;1736;52.068;6.968;2024-03-08T12:07:01;24.35;;;15.52;;
3443;SDS011;1736;52.068;6.968;2024-03-08T12:09:33;21.98;;;14.55;;
3443;SDS011;1736;52.068;6.968;2024-03-08T12:12:01;20.98;;;14.98;;
3443;SDS011;1736;52.068;6.968;2024-03-08T12:14:29;20.63;;;14.57;;
3443;SDS011;1736;52.068;6.968;2024-03-08T12:16:56;23.38;;;14.02;;
3443;SDS011;1736;52.068;6.968;2024-03-08T12:19:23;20.23;;;13.80;;
3443;SDS011;1736;52.068;6.968;2024-03-08T12:21:50;20.08;;;13.10;;
3443;SDS011;1736;52.068;6.968;2024-03-08T12:24:17;20.27;;;12.90;;
3443;SDS011;1736;52.068;6.968;2024-03-08T12:26:45;19.38;;;13.10;;
3443;SDS011;1736;52.068;6.968;2024-03-08T12:29:20;21.63;;;13.32;;
3443;SDS011;1736;52.068;6.968;2024-03-08T12:31:50;19.88;;;13.52;;
3443;SDS011;1736;52.068;6.968;2024-03-08T12:34:18;20.00;;;13.80;;
3443;SDS011;1736;52.068;6.968;2024-03-08T12:36:45;21.73;;;13.27;;
3443;SDS011;1736;52.068;6.968;2024-03-08T12:39:15;18.50;;;13.95;;
3443;SDS011;1736;52.068;6.968;2024-03-08T12:41:43;19.30;;;12.90;;
3443;SDS011;1736;52.068;6.968;2024-03-08T12:44:09;17.77;;;13.05;;
3443;SDS011;1736;52.068;6.968;2024-03-08T12:46:37;20.50;;;13.93;;
3443;SDS011;1736;52.068;6.968;2024-03-08T12:49:08;19.98;;;13.38;;
3443;SDS011;1736;52.068;6.968;2024-03-08T12:51:36;21.83;;;14.40;;
3443;SDS011;1736;52.068;6.968;2024-03-08T12:54:04;19.42;;;13.60;;
3443;SDS011;1736;52.068;6.968;2024-03-08T12:56:32;18.30;;;13.23;;
3443;SDS011;1736;52.068;6.968;2024-03-08T12:59:02;18.80;;;13.60;;
3443;SDS011;1736;52.068;6.968;2024-03-08T13:01:30;19.30;;;13.88;;
3443;SDS011;1736;52.068;6.968;2024-03-08T13:03:57;20.38;;;13.85;;
3443;SDS011;1736;52.068;6.968;2024-03-08T13:06:26;19.67;;;13.55;;
3443;SDS011;1736;52.068;6.968;2024-03-08T13:08:53;19.23;;;13.98;;
3443;SDS011;1736;52.068;6.968;2024-03-08T13:11:20;19.23;;;12.80;;
3443;SDS011;1736;52.068;6.968;2024-03-08T13:13:48;18.58;;;13.27;;
3443;SDS011;1736;52.068;6.968;2024-03-08T13:16:15;18.65;;;13.07;;
3443;SDS011;1736;52.068;6.968;2024-03-08T13:18:43;20.20;;;13.27;;
3443;SDS011;1736;52.068;6.968;2024-03-08T13:21:10;18.50;;;13.40;;
3443;SDS011;1736;52.068;6.968;2024-03-08T13:23:40;18.73;;;13.07;;
3443;SDS011;1736;52.068;6.968;2024-03-08T13:26:11;17.75;;;12.60;;
3443;SDS011;1736;52.068;6.968;2024-03-08T13:28:40;20.50;;;12.98;;
3443;SDS011;1736;52.068;6.968;2024-03-08T13:31:07;18.77;;;12.60;;
3443;SDS011;1736;52.068;6.968;2024-03-08T13:33:35;19.52;;;12.95;;
3443;SDS011;1736;52.068;6.968;2024-03-08T13:36:01;18.77;;;13.00;;
3443;SDS011;1736;52.068;6.968;2024-03-08T13:38:29;19.30;;;13.38;;
3443;SDS011;1736;52.068;6.968;2024-03-08T13:40:58;18.50;;;13.20;;
3443;SDS011;1736;52.068;6.968;2024-03-08T13:43:25;20.08;;;13.52;;
3443;SDS011;1736;52.068;6.968;2024-03-08T13:45:53;16.10;;;11.23;;
3443;SDS011;1736;52.068;6.968;2024-03-08T13:48:20;17.88;;;13.30;;
3443;SDS011;1736;52.068;6.968;2024-03-08T13:50:47;18.05;;;12.35;;
3443;SDS011;1736;52.068;6.968;2024-03-08T13:53:14;18.25;;;13.60;;
3443;SDS011;1736;52.068;6.968;2024-03-08T13:55:41;17.83;;;13.23;;
3443;SDS011;1736;52.068;6.968;2024-03-08T13:58:09;18.95;;;12.50;;
3443;SDS011;1736;52.068;6.968;2024-03-08T14:00:39;17.98;;;12.20;;
3443;SDS011;1736;52.068;6.968;2024-03-08T14:03:08;18.08;;;12.52;;
3443;SDS011;1736;52.068;6.968;2024-03-08T14:05:38;20.20;;;13.10;;
3443;SDS011;1736;52.068;6.968;2024-03-08T14:08:06;20.52;;;14.40;;
3443;SDS011;1736;52.068;6.968;2024-03-08T14:10:33;17.50;;;12.85;;
3443;SDS011;1736;52.068;6.968;2024-03-08T14:13:02;19.50;;;14.00;;
3443;SDS011;1736;52.068;6.968;2024-03-08T14:15:31;18.80;;;13.90;;
3443;SDS011;1736;52.068;6.968;2024-03-08T14:17:58;20.35;;;13.57;;
3443;SDS011;1736;52.068;6.968;2024-03-08T14:20:24;21.13;;;14.73;;
3443;SDS011;1736;52.068;6.968;2024-03-08T14:22:51;19.63;;;13.00;;
3443;SDS011;1736;52.068;6.968;2024-03-08T14:25:18;19.13;;;14.00;;
3443;SDS011;1736;52.068;6.968;2024-03-08T14:27:45;19.63;;;13.27;;
3443;SDS011;1736;52.068;6.968;2024-03-08T14:30:12;19.38;;;14.20;;
3443;SDS011;1736;52.068;6.968;2024-03-08T14:32:54;18.88;;;13.20;;
3443;SDS011;1736;52.068;6.968;2024-03-08T14:35:21;21.10;;;14.25;;
3443;SDS011;1736;52.068;6.968;2024-03-08T14:37:49;20.00;;;14.20;;
3443;SDS011;1736;52.068;6.968;2024-03-08T14:40:17;20.80;;;14.30;;
3443;SDS011;1736;52.068;6.968;2024-03-08T14:42:47;19.75;;;14.30;;
3443;SDS011;1736;52.068;6.968;2024-03-08T14:45:14;21.85;;;14.70;;
3443;SDS011;1736;52.068;6.968;2024-03-08T14:47:41;20.88;;;13.93;;
3443;SDS011;1736;52.068;6.968;2024-03-08T14:50:09;21.35;;;14.77;;
3443;SDS011;1736;52.068;6.968;2024-03-08T14:52:37;19.20;;;13.60;;
3443;SDS011;1736;52.068;6.968;2024-03-08T14:55:05;21.13;;;14.67;;